createdAt,value
2023-02-14T00:00:08.446Z,38.19
2023-02-14T00:01:08.424Z,39.48
2023-02-14T00:02:08.721Z,39.16
2023-02-14T00:03:08.471Z,38.35
2023-02-14T00:04:08.422Z,38.67
2023-02-14T00:05:08.393Z,38.67
2023-02-14T00:06:08.384Z,38.99
2023-02-14T00:07:08.751Z,38.19
2023-02-14T00:08:08.356Z,38.99
2023-02-14T00:09:08.346Z,38.35
2023-02-14T00:10:08.350Z,38.03
2023-02-14T00:11:08.335Z,38.83
2023-02-14T00:12:08.658Z,37.87
2023-02-14T00:13:08.315Z,37.71
2023-02-14T00:14:08.306Z,38.03
2023-02-14T00:15:08.290Z,37.38
2023-02-14T00:16:08.321Z,37.22
2023-02-14T00:17:08.582Z,37.54
2023-02-14T00:18:08.264Z,38.19
2023-02-14T00:19:08.262Z,37.06
2023-02-14T00:20:08.247Z,37.87
2023-02-14T00:21:08.234Z,37.38
2023-02-14T00:22:08.241Z,37.22
2023-02-14T00:23:08.210Z,37.22
2023-02-14T00:24:08.213Z,37.38
2023-02-14T00:25:08.189Z,37.06
2023-02-14T00:26:08.185Z,37.71
2023-02-14T00:27:09.082Z,37.87
2023-02-14T00:28:08.171Z,37.87
2023-02-14T00:29:08.157Z,37.22
2023-02-14T00:30:08.190Z,37.71
2023-02-14T00:31:08.348Z,37.54
2023-02-14T00:32:08.949Z,38.19
2023-02-14T00:33:08.113Z,36.90
2023-02-14T00:34:08.103Z,37.54
2023-02-14T00:35:08.094Z,37.06
2023-02-14T00:36:08.092Z,37.54
2023-02-14T00:37:08.073Z,37.71
2023-02-14T00:38:08.082Z,38.19
2023-02-14T00:39:08.493Z,38.03
2023-02-14T00:40:08.064Z,37.22
2023-02-14T00:41:08.029Z,37.06
2023-02-14T00:42:08.036Z,37.06
2023-02-14T00:43:08.018Z,37.54
2023-02-14T00:44:08.012Z,37.06
2023-02-14T00:45:07.994Z,36.90
2023-02-14T00:46:08.014Z,37.54
2023-02-14T00:47:07.970Z,37.38
2023-02-14T00:48:07.980Z,37.22
2023-02-14T00:49:07.954Z,37.54
2023-02-14T00:50:07.945Z,36.74
2023-02-14T00:51:07.933Z,37.22
2023-02-14T00:52:07.929Z,41.41
2023-02-14T00:53:07.921Z,37.22
2023-02-14T00:54:07.905Z,36.90
2023-02-14T00:55:07.918Z,37.22
2023-02-14T00:56:07.896Z,37.22
2023-02-14T00:57:07.875Z,36.90
2023-02-14T00:58:07.872Z,37.38
2023-02-14T00:59:07.858Z,37.22
2023-02-14T01:00:07.843Z,38.35
2023-02-14T01:01:07.868Z,37.22
2023-02-14T01:02:07.910Z,36.74
2023-02-14T01:03:07.828Z,38.67
2023-02-14T01:04:07.816Z,37.06
2023-02-14T01:05:07.805Z,36.58
2023-02-14T01:06:07.813Z,36.58
2023-02-14T01:07:07.780Z,36.90
2023-02-14T01:08:07.795Z,37.22
2023-02-14T01:09:07.755Z,37.38
2023-02-14T01:10:07.752Z,37.22
2023-02-14T01:11:07.735Z,38.19
2023-02-14T01:12:07.731Z,37.87
2023-02-14T01:13:07.746Z,36.90
2023-02-14T01:14:07.705Z,38.67
2023-02-14T01:15:07.697Z,36.74
2023-02-14T01:16:07.759Z,36.58
2023-02-14T01:17:07.685Z,36.90
2023-02-14T01:18:07.671Z,36.09
2023-02-14T01:19:07.653Z,36.74
2023-02-14T01:20:07.648Z,36.42
2023-02-14T01:21:07.636Z,37.71
2023-02-14T01:22:07.629Z,36.90
2023-02-14T01:23:07.719Z,37.22
2023-02-14T01:24:07.613Z,37.06
2023-02-14T01:25:07.607Z,38.19
2023-02-14T01:26:07.597Z,37.87
2023-02-14T01:27:07.592Z,37.71
2023-02-14T01:28:07.571Z,36.58
2023-02-14T01:29:07.564Z,37.54
2023-02-14T01:30:07.645Z,37.87
2023-02-14T01:31:07.570Z,39.96
2023-02-14T01:32:07.655Z,36.58
2023-02-14T01:33:07.514Z,36.74
2023-02-14T01:34:07.522Z,38.35
2023-02-14T01:35:07.509Z,37.38
2023-02-14T01:36:07.507Z,36.09
2023-02-14T01:37:07.500Z,36.09
2023-02-14T01:38:07.480Z,38.19
2023-02-14T01:39:07.462Z,36.90
2023-02-14T01:40:07.453Z,36.90
2023-02-14T01:41:07.439Z,37.22
2023-02-14T01:42:07.439Z,36.90
2023-02-14T01:43:07.427Z,37.06
2023-02-14T01:44:07.430Z,36.58
2023-02-14T01:45:07.408Z,37.06
2023-02-14T01:46:07.507Z,37.22
2023-02-14T01:47:07.376Z,36.42
2023-02-14T01:48:07.392Z,36.42
2023-02-14T01:49:07.365Z,36.42
2023-02-14T01:50:07.360Z,36.58
2023-02-14T01:51:07.338Z,36.42
2023-02-14T01:52:07.342Z,36.90
2023-02-14T01:53:07.579Z,37.54
2023-02-14T01:54:07.317Z,36.74
2023-02-14T01:55:07.309Z,36.90
2023-02-14T01:56:07.304Z,36.74
2023-02-14T01:57:07.280Z,37.06
2023-02-14T01:58:07.282Z,36.58
2023-02-14T01:59:07.265Z,37.38
2023-02-14T02:00:07.263Z,37.54
2023-02-14T02:01:07.255Z,37.22
2023-02-14T02:02:07.260Z,36.42
2023-02-14T02:03:07.222Z,37.54
2023-02-14T02:04:07.233Z,37.06
2023-02-14T02:05:07.197Z,37.06
2023-02-14T02:06:07.195Z,36.25
2023-02-14T02:07:07.189Z,36.74
2023-02-14T02:08:07.176Z,36.74
2023-02-14T02:09:07.160Z,36.90
2023-02-14T02:10:07.160Z,36.09
2023-02-14T02:11:07.153Z,37.06
2023-02-14T02:12:07.144Z,37.22
2023-02-14T02:13:07.127Z,36.74
2023-02-14T02:14:07.120Z,37.38
2023-02-14T02:15:07.113Z,36.42
2023-02-14T02:16:07.093Z,36.74
2023-02-14T02:17:07.084Z,37.71
2023-02-14T02:18:07.085Z,37.06
2023-02-14T02:19:07.068Z,36.74
2023-02-14T02:20:07.073Z,36.09
2023-02-14T02:21:07.055Z,37.22
2023-02-14T02:22:07.040Z,37.38
2023-02-14T02:23:07.032Z,37.06
2023-02-14T02:24:07.021Z,37.22
2023-02-14T02:25:07.004Z,36.09
2023-02-14T02:26:06.994Z,37.06
2023-02-14T02:27:08.480Z,36.58
2023-02-14T02:28:06.980Z,36.90
2023-02-14T02:29:06.958Z,36.90
2023-02-14T02:30:06.972Z,37.22
2023-02-14T02:31:07.016Z,36.74
2023-02-14T02:32:07.124Z,36.90
2023-02-14T02:33:06.984Z,37.54
2023-02-14T02:34:06.920Z,37.54
2023-02-14T02:35:06.909Z,37.87
2023-02-14T02:36:06.897Z,37.22
2023-02-14T02:37:06.883Z,37.87
2023-02-14T02:38:06.884Z,37.38
2023-02-14T02:39:06.872Z,36.42
2023-02-14T02:40:06.862Z,37.54
2023-02-14T02:41:06.847Z,37.22
2023-02-14T02:42:06.863Z,36.42
2023-02-14T02:43:06.864Z,37.22
2023-02-14T02:44:06.832Z,37.22
2023-02-14T02:45:06.804Z,38.67
2023-02-14T02:46:06.811Z,36.74
2023-02-14T02:47:06.793Z,37.71
2023-02-14T02:48:06.780Z,37.54
2023-02-14T02:49:06.776Z,37.38
2023-02-14T02:50:06.763Z,40.93
2023-02-14T02:51:06.747Z,36.42
2023-02-14T02:52:06.748Z,36.58
2023-02-14T02:53:07.056Z,36.74
2023-02-14T02:54:06.719Z,37.54
2023-02-14T02:55:06.702Z,36.58
2023-02-14T02:56:06.703Z,38.19
2023-02-14T02:57:06.688Z,37.06
2023-02-14T02:58:07.150Z,37.22
2023-02-14T02:59:06.682Z,36.74
2023-02-14T03:00:06.675Z,37.71
2023-02-14T03:01:06.645Z,37.22
2023-02-14T03:02:06.648Z,37.22
2023-02-14T03:03:07.014Z,37.38
2023-02-14T03:04:06.629Z,38.35
2023-02-14T03:05:06.700Z,38.35
2023-02-14T03:06:06.595Z,37.87
2023-02-14T03:07:06.582Z,37.71
2023-02-14T03:08:06.600Z,37.54
2023-02-14T03:09:06.578Z,37.22
2023-02-14T03:10:06.554Z,38.19
2023-02-14T03:11:06.554Z,37.71
2023-02-14T03:12:06.534Z,38.19
2023-02-14T03:13:06.793Z,38.19
2023-02-14T03:14:06.524Z,38.03
2023-02-14T03:15:06.502Z,37.87
2023-02-14T03:16:06.519Z,38.19
2023-02-14T03:17:06.483Z,38.03
2023-02-14T03:18:06.802Z,37.71
2023-02-14T03:19:06.470Z,38.67
2023-02-14T03:20:06.458Z,37.38
2023-02-14T03:21:06.454Z,37.22
2023-02-14T03:22:06.447Z,37.54
2023-02-14T03:23:06.423Z,38.67
2023-02-14T03:24:06.437Z,38.03
2023-02-14T03:25:06.420Z,37.71
2023-02-14T03:26:06.399Z,38.19
2023-02-14T03:27:06.407Z,37.71
2023-02-14T03:28:06.374Z,37.71
2023-02-14T03:29:06.387Z,38.35
2023-02-14T03:30:06.397Z,38.03
2023-02-14T03:31:06.426Z,37.22
2023-02-14T03:32:06.456Z,37.06
2023-02-14T03:33:06.333Z,36.90
2023-02-14T03:34:06.325Z,37.22
2023-02-14T03:35:06.310Z,37.22
2023-02-14T03:36:06.305Z,40.44
2023-02-14T03:37:06.288Z,38.83
2023-02-14T03:38:06.285Z,37.71
2023-02-14T03:39:06.273Z,38.35
2023-02-14T03:40:06.266Z,37.71
2023-02-14T03:41:06.250Z,37.38
2023-02-14T03:42:06.472Z,37.06
2023-02-14T03:43:06.241Z,37.87
2023-02-14T03:44:06.234Z,37.87
2023-02-14T03:45:06.253Z,37.87
2023-02-14T03:46:06.232Z,37.71
2023-02-14T03:47:06.233Z,38.51
2023-02-14T03:48:06.181Z,37.38
2023-02-14T03:49:06.179Z,37.87
2023-02-14T03:50:06.184Z,36.74
2023-02-14T03:51:06.156Z,38.83
2023-02-14T03:52:06.151Z,37.87
2023-02-14T03:53:06.150Z,39.16
2023-02-14T03:54:06.125Z,36.74
2023-02-14T03:55:06.104Z,37.38
2023-02-14T03:56:06.102Z,39.64
2023-02-14T03:57:06.098Z,37.38
2023-02-14T03:58:06.074Z,36.58
2023-02-14T03:59:06.114Z,38.03
2023-02-14T04:00:06.068Z,37.38
2023-02-14T04:01:06.050Z,37.22
2023-02-14T04:02:06.043Z,39.16
2023-02-14T04:03:06.039Z,37.87
2023-02-14T04:04:06.024Z,39.32
2023-02-14T04:05:06.029Z,38.19
2023-02-14T04:06:06.008Z,38.19
2023-02-14T04:07:05.991Z,39.48
2023-02-14T04:08:05.979Z,38.99
2023-02-14T04:09:05.997Z,39.16
2023-02-14T04:10:05.955Z,36.58
2023-02-14T04:11:05.954Z,38.51
2023-02-14T04:12:05.942Z,38.67
2023-02-14T04:13:05.941Z,37.54
2023-02-14T04:14:05.945Z,39.48
2023-02-14T04:15:05.911Z,38.99
2023-02-14T04:16:05.934Z,38.19
2023-02-14T04:17:05.900Z,38.83
2023-02-14T04:18:05.877Z,38.99
2023-02-14T04:19:05.884Z,38.99
2023-02-14T04:20:05.869Z,38.67
2023-02-14T04:21:05.855Z,39.16
2023-02-14T04:22:05.838Z,38.35
2023-02-14T04:23:05.842Z,40.61
2023-02-14T04:24:05.841Z,40.12
2023-02-14T04:25:05.818Z,38.67
2023-02-14T04:26:05.816Z,39.64
2023-02-14T04:27:05.804Z,39.48
2023-02-14T04:28:05.791Z,39.16
2023-02-14T04:29:05.998Z,39.16
2023-02-14T04:30:05.821Z,39.16
2023-02-14T04:31:05.874Z,38.35
2023-02-14T04:32:05.871Z,39.80
2023-02-14T04:33:05.734Z,39.48
2023-02-14T04:34:05.730Z,43.51
2023-02-14T04:35:05.739Z,40.93
2023-02-14T04:36:05.700Z,40.12
2023-02-14T04:37:05.706Z,41.41
2023-02-14T04:38:05.693Z,40.93
2023-02-14T04:39:05.678Z,38.99
2023-02-14T04:40:05.670Z,38.83
2023-02-14T04:41:05.652Z,40.28
2023-02-14T04:42:05.641Z,38.83
2023-02-14T04:43:05.630Z,38.83
2023-02-14T04:44:05.628Z,39.64
2023-02-14T04:45:05.627Z,40.44
2023-02-14T04:46:05.610Z,39.16
2023-02-14T04:47:05.604Z,38.99
2023-02-14T04:48:05.596Z,39.96
2023-02-14T04:49:05.578Z,38.67
2023-02-14T04:50:05.558Z,38.67
2023-02-14T04:51:05.567Z,38.51
2023-02-14T04:52:05.570Z,38.51
2023-02-14T04:53:05.535Z,38.67
2023-02-14T04:54:05.528Z,39.96
2023-02-14T04:55:05.530Z,39.16
2023-02-14T04:56:05.499Z,39.48
2023-02-14T04:57:05.503Z,38.03
2023-02-14T04:58:05.484Z,39.32
2023-02-14T04:59:05.479Z,39.16
2023-02-14T05:00:05.463Z,39.16
2023-02-14T05:01:05.505Z,39.64
2023-02-14T05:02:05.511Z,40.93
2023-02-14T05:03:05.437Z,38.99
2023-02-14T05:04:05.429Z,40.12
2023-02-14T05:05:05.417Z,41.57
2023-02-14T05:06:05.415Z,38.99
2023-02-14T05:07:05.418Z,41.89
2023-02-14T05:08:05.405Z,40.44
2023-02-14T05:09:05.385Z,38.51
2023-02-14T05:10:05.360Z,37.54
2023-02-14T05:11:05.311Z,39.80
2023-02-14T05:12:05.294Z,40.44
2023-02-14T05:13:05.292Z,40.12
2023-02-14T05:14:05.275Z,41.73
2023-02-14T05:15:05.269Z,40.28
2023-02-14T05:16:05.274Z,41.89
2023-02-14T05:17:05.247Z,39.32
2023-02-14T05:18:05.229Z,40.77
2023-02-14T05:19:05.234Z,39.16
2023-02-14T05:20:05.216Z,39.64
2023-02-14T05:21:05.201Z,40.12
2023-02-14T05:22:05.191Z,41.09
2023-02-14T05:23:05.225Z,40.61
2023-02-14T05:24:05.184Z,39.16
2023-02-14T05:25:05.177Z,39.80
2023-02-14T05:26:05.166Z,40.28
2023-02-14T05:27:05.143Z,40.44
2023-02-14T05:28:05.153Z,40.61
2023-02-14T05:29:05.130Z,39.64
2023-02-14T05:30:05.203Z,39.32
2023-02-14T05:31:05.158Z,40.28
2023-02-14T05:32:05.154Z,40.61
2023-02-14T05:33:05.083Z,39.48
2023-02-14T05:34:05.077Z,39.96
2023-02-14T05:35:05.074Z,40.93
2023-02-14T05:36:05.061Z,41.09
2023-02-14T05:37:05.056Z,39.64
2023-02-14T05:38:05.038Z,40.28
2023-02-14T05:39:05.037Z,41.41
2023-02-14T05:40:05.008Z,41.89
2023-02-14T05:41:05.028Z,40.77
2023-02-14T05:42:05.059Z,39.16
2023-02-14T05:43:05.061Z,39.64
2023-02-14T05:44:05.038Z,41.09
2023-02-14T05:45:05.020Z,42.22
2023-02-14T05:46:05.061Z,40.12
2023-02-14T05:47:04.997Z,42.22
2023-02-14T05:48:04.993Z,40.44
2023-02-14T05:49:05.044Z,39.80
2023-02-14T05:50:04.991Z,39.32
2023-02-14T05:51:04.974Z,40.93
2023-02-14T05:52:04.958Z,40.93
2023-02-14T05:53:04.943Z,40.77
2023-02-14T05:54:04.936Z,43.99
2023-02-14T05:55:04.942Z,39.48
2023-02-14T05:56:04.940Z,38.67
2023-02-14T05:57:04.862Z,38.35
2023-02-14T05:58:04.841Z,38.99
2023-02-14T05:59:04.830Z,38.83
2023-02-14T06:00:04.825Z,41.09
2023-02-14T06:01:04.892Z,39.48
2023-02-14T06:02:04.886Z,40.44
2023-02-14T06:03:04.851Z,40.44
2023-02-14T06:04:04.864Z,43.51
2023-02-14T06:05:04.830Z,40.44
2023-02-14T06:06:04.787Z,40.93
2023-02-14T06:07:04.769Z,40.44
2023-02-14T06:08:04.736Z,40.12
2023-02-14T06:09:04.747Z,40.77
2023-02-14T06:10:04.734Z,42.54
2023-02-14T06:11:04.722Z,40.44
2023-02-14T06:12:04.757Z,38.99
2023-02-14T06:13:04.755Z,40.12
2023-02-14T06:14:04.709Z,40.93
2023-02-14T06:15:04.673Z,39.96
2023-02-14T06:16:04.701Z,42.38
2023-02-14T06:17:04.730Z,39.64
2023-02-14T06:18:04.662Z,43.18
2023-02-14T06:19:05.112Z,41.57
2023-02-14T06:20:04.620Z,40.44
2023-02-14T06:21:04.633Z,39.80
2023-02-14T06:22:04.626Z,41.73
2023-02-14T06:23:04.606Z,41.09
2023-02-14T06:24:05.410Z,41.57
2023-02-14T06:25:04.579Z,40.77
2023-02-14T06:26:04.566Z,41.25
2023-02-14T06:27:04.557Z,40.28
2023-02-14T06:28:04.533Z,40.12
2023-02-14T06:29:04.563Z,39.96
2023-02-14T06:30:04.568Z,66.06
2023-02-14T06:31:04.992Z,41.73
2023-02-14T06:32:04.664Z,41.41
2023-02-14T06:33:04.502Z,40.93
2023-02-14T06:34:04.487Z,40.93
2023-02-14T06:35:04.484Z,40.44
2023-02-14T06:36:04.461Z,39.64
2023-02-14T06:37:04.460Z,39.96
2023-02-14T06:38:04.449Z,42.70
2023-02-14T06:39:04.444Z,39.64
2023-02-14T06:40:04.457Z,41.41
2023-02-14T06:41:04.792Z,40.12
2023-02-14T06:42:04.405Z,42.38
2023-02-14T06:43:04.394Z,40.44
2023-02-14T06:44:04.389Z,40.93
2023-02-14T06:45:04.389Z,41.89
2023-02-14T06:46:04.427Z,40.44
2023-02-14T06:47:04.369Z,41.89
2023-02-14T06:48:04.342Z,42.54
2023-02-14T06:49:04.334Z,39.64
2023-02-14T06:50:04.349Z,39.80
2023-02-14T06:51:04.318Z,39.48
2023-02-14T06:52:04.311Z,40.93
2023-02-14T06:53:04.300Z,40.12
2023-02-14T06:54:04.290Z,42.06
2023-02-14T06:55:04.290Z,43.02
2023-02-14T06:56:04.270Z,40.28
2023-02-14T06:57:04.281Z,39.96
2023-02-14T06:58:04.248Z,43.51
2023-02-14T06:59:04.253Z,41.41
2023-02-14T07:00:04.275Z,39.16
2023-02-14T07:01:04.295Z,40.28
2023-02-14T07:02:04.216Z,40.93
2023-02-14T07:03:04.248Z,47.21
2023-02-14T07:04:04.186Z,42.86
2023-02-14T07:05:04.187Z,41.25
2023-02-14T07:06:04.168Z,42.86
2023-02-14T07:07:04.166Z,40.44
2023-02-14T07:08:04.202Z,41.25
2023-02-14T07:09:04.148Z,40.93
2023-02-14T07:10:04.137Z,39.64
2023-02-14T07:11:04.124Z,39.96
2023-02-14T07:12:04.120Z,39.80
2023-02-14T07:13:04.111Z,40.28
2023-02-14T07:14:04.084Z,42.22
2023-02-14T07:15:04.099Z,42.70
2023-02-14T07:16:04.097Z,40.93
2023-02-14T07:17:04.064Z,39.80
2023-02-14T07:18:04.059Z,39.96
2023-02-14T07:19:04.047Z,39.64
2023-02-14T07:20:04.036Z,42.38
2023-02-14T07:21:04.024Z,43.18
2023-02-14T07:22:04.014Z,40.61
2023-02-14T07:23:04.014Z,40.28
2023-02-14T07:24:03.993Z,41.73
2023-02-14T07:25:03.984Z,42.70
2023-02-14T07:26:03.969Z,42.86
2023-02-14T07:27:03.960Z,42.38
2023-02-14T07:28:03.949Z,40.93
2023-02-14T07:29:03.954Z,41.73
2023-02-14T07:30:03.960Z,40.28
2023-02-14T07:31:04.436Z,43.99
2023-02-14T07:32:04.134Z,41.09
2023-02-14T07:33:03.898Z,39.64
2023-02-14T07:34:03.889Z,39.48
2023-02-14T07:35:04.166Z,40.77
2023-02-14T07:36:03.886Z,41.41
2023-02-14T07:37:03.879Z,41.57
2023-02-14T07:38:03.856Z,42.86
2023-02-14T07:39:03.856Z,39.64
2023-02-14T07:40:03.841Z,41.73
2023-02-14T07:41:03.832Z,40.93
2023-02-14T07:42:03.805Z,41.41
2023-02-14T07:43:03.800Z,40.44
2023-02-14T07:44:03.794Z,39.16
2023-02-14T07:45:15.883Z,40.12
2023-02-14T07:46:03.836Z,39.32
2023-02-14T07:47:03.771Z,42.38
2023-02-14T07:48:03.762Z,40.12
2023-02-14T07:49:03.741Z,40.61
2023-02-14T07:50:03.753Z,40.77
2023-02-14T07:51:03.931Z,42.70
2023-02-14T07:52:03.713Z,40.44
2023-02-14T07:53:03.731Z,40.61
2023-02-14T07:54:03.683Z,42.06
2023-02-14T07:55:03.699Z,41.25
2023-02-14T07:56:03.665Z,42.38
2023-02-14T07:57:03.665Z,40.44
2023-02-14T07:58:03.651Z,40.44
2023-02-14T07:59:03.644Z,41.09
2023-02-14T08:00:03.643Z,40.28
2023-02-14T08:01:03.613Z,41.41
2023-02-14T08:02:03.734Z,40.44
2023-02-14T08:03:03.607Z,40.77
2023-02-14T08:04:03.622Z,40.61
2023-02-14T08:05:03.666Z,42.06
2023-02-14T08:06:03.573Z,39.48
2023-02-14T08:07:03.556Z,39.80
2023-02-14T08:08:03.553Z,41.41
2023-02-14T08:09:03.550Z,44.15
2023-02-14T08:10:03.544Z,40.12
2023-02-14T08:11:03.641Z,44.47
2023-02-14T08:12:03.517Z,39.80
2023-02-14T08:13:03.560Z,40.77
2023-02-14T08:14:03.494Z,42.38
2023-02-14T08:15:03.498Z,40.93
2023-02-14T08:16:03.548Z,40.28
2023-02-14T08:17:03.461Z,39.96
2023-02-14T08:18:03.459Z,41.41
2023-02-14T08:19:03.430Z,41.57
2023-02-14T08:20:03.452Z,39.64
2023-02-14T08:21:03.419Z,50.92
2023-02-14T08:22:03.416Z,43.18
2023-02-14T08:23:03.399Z,41.09
2023-02-14T08:24:03.391Z,41.41
2023-02-14T08:25:03.377Z,42.54
2023-02-14T08:26:03.364Z,41.89
2023-02-14T08:27:03.368Z,41.57
2023-02-14T08:28:03.342Z,40.93
2023-02-14T08:29:03.332Z,39.48
2023-02-14T08:30:03.378Z,41.09
2023-02-14T08:31:03.733Z,40.77
2023-02-14T08:32:03.442Z,41.41
2023-02-14T08:33:03.296Z,41.41
2023-02-14T08:34:03.291Z,45.92
2023-02-14T08:35:03.273Z,40.28
2023-02-14T08:36:03.276Z,43.02
2023-02-14T08:37:03.253Z,40.93
2023-02-14T08:38:03.266Z,46.25
2023-02-14T08:39:03.247Z,40.61
2023-02-14T08:40:03.539Z,43.67
2023-02-14T08:41:06.651Z,41.73
2023-02-14T08:42:03.201Z,41.89
2023-02-14T08:43:03.200Z,46.73
2023-02-14T08:44:03.190Z,40.77
2023-02-14T08:45:03.195Z,44.31
2023-02-14T08:46:03.447Z,44.96
2023-02-14T08:47:03.231Z,43.99
2023-02-14T08:48:03.179Z,45.92
2023-02-14T08:49:03.153Z,42.54
2023-02-14T08:50:03.152Z,46.08
2023-02-14T08:51:03.235Z,44.96
2023-02-14T08:52:03.114Z,43.51
2023-02-14T08:53:03.105Z,45.92
2023-02-14T08:54:03.090Z,53.98
2023-02-14T08:55:03.399Z,42.22
2023-02-14T08:56:03.094Z,42.06
2023-02-14T08:57:03.048Z,42.22
2023-02-14T08:58:03.040Z,42.38
2023-02-14T08:59:03.035Z,43.67
2023-02-14T09:00:03.425Z,42.06
2023-02-14T09:01:03.418Z,41.89
2023-02-14T09:02:03.039Z,41.73
2023-02-14T09:03:03.066Z,43.83
2023-02-14T09:04:03.092Z,40.44
2023-02-14T09:05:03.304Z,41.89
2023-02-14T09:06:02.965Z,42.22
2023-02-14T09:07:02.964Z,43.34
2023-02-14T09:08:02.949Z,41.89
2023-02-14T09:09:02.948Z,41.57
2023-02-14T09:10:03.766Z,42.22
2023-02-14T09:11:03.168Z,46.89
2023-02-14T09:12:02.913Z,43.34
2023-02-14T09:13:02.912Z,43.34
2023-02-14T09:14:02.896Z,42.54
2023-02-14T09:15:02.901Z,42.38
2023-02-14T09:16:03.034Z,42.22
2023-02-14T09:17:02.956Z,42.38
2023-02-14T09:18:02.865Z,42.38
2023-02-14T09:19:02.851Z,41.73
2023-02-14T09:20:02.835Z,42.86
2023-02-14T09:21:03.106Z,44.31
2023-02-14T09:22:02.824Z,56.07
2023-02-14T09:23:02.800Z,45.60
2023-02-14T09:24:02.790Z,42.54
2023-02-14T09:25:02.775Z,44.15
2023-02-14T09:26:02.778Z,43.51
2023-02-14T09:27:02.790Z,55.27
2023-02-14T09:28:03.030Z,42.70
2023-02-14T09:29:02.736Z,43.67
2023-02-14T09:30:02.793Z,42.38
2023-02-14T09:31:02.970Z,49.15
2023-02-14T09:32:02.864Z,57.04
2023-02-14T09:33:02.699Z,44.15
2023-02-14T09:34:02.718Z,47.53
2023-02-14T09:35:02.689Z,42.70
2023-02-14T09:36:02.697Z,42.70
2023-02-14T09:37:03.887Z,43.99
2023-02-14T09:38:02.655Z,43.34
2023-02-14T09:39:02.636Z,42.22
2023-02-14T09:40:02.636Z,42.86
2023-02-14T09:41:02.707Z,43.18
2023-02-14T09:42:02.608Z,42.54
2023-02-14T09:43:02.597Z,43.83
2023-02-14T09:44:02.587Z,46.57
2023-02-14T09:45:02.594Z,44.47
2023-02-14T09:46:02.615Z,43.99
2023-02-14T09:47:02.542Z,44.15
2023-02-14T09:48:02.557Z,44.47
2023-02-14T09:49:02.559Z,44.15
2023-02-14T09:50:02.585Z,44.63
2023-02-14T09:51:02.704Z,44.63
2023-02-14T09:52:02.510Z,43.67
2023-02-14T09:53:02.490Z,45.12
2023-02-14T09:54:02.477Z,44.96
2023-02-14T09:55:02.467Z,44.15
2023-02-14T09:56:02.480Z,45.12
2023-02-14T09:57:02.446Z,44.47
2023-02-14T09:58:02.449Z,43.99
2023-02-14T09:59:02.458Z,44.47
2023-02-14T10:00:02.429Z,44.15
2023-02-14T10:01:02.740Z,51.24
2023-02-14T10:02:02.456Z,43.99
2023-02-14T10:03:02.393Z,44.15
2023-02-14T10:04:02.376Z,43.99
2023-02-14T10:05:02.371Z,44.31
2023-02-14T10:06:02.363Z,43.51
2023-02-14T10:07:02.354Z,43.67
2023-02-14T10:08:02.350Z,43.99
2023-02-14T10:09:02.324Z,43.83
2023-02-14T10:10:02.325Z,43.18
2023-02-14T10:11:02.425Z,44.15
2023-02-14T10:12:02.300Z,43.99
2023-02-14T10:13:02.289Z,43.02
2023-02-14T10:14:02.288Z,43.51
2023-02-14T10:15:02.284Z,43.67
2023-02-14T10:16:02.268Z,43.34
2023-02-14T10:17:02.248Z,43.34
2023-02-14T10:18:02.244Z,43.99
2023-02-14T10:19:02.246Z,46.41
2023-02-14T10:20:02.261Z,43.18
2023-02-14T10:21:02.652Z,42.38
2023-02-14T10:22:02.203Z,42.38
2023-02-14T10:23:02.179Z,43.99
2023-02-14T10:24:02.171Z,43.34
2023-02-14T10:25:02.166Z,43.99
2023-02-14T10:26:02.185Z,43.83
2023-02-14T10:27:02.147Z,43.34
2023-02-14T10:28:02.140Z,43.34
2023-02-14T10:29:02.135Z,42.06
2023-02-14T10:30:02.165Z,43.18
2023-02-14T10:31:02.461Z,43.18
2023-02-14T10:32:02.172Z,43.02
2023-02-14T10:33:02.076Z,42.06
2023-02-14T10:34:02.080Z,41.89
2023-02-14T10:35:02.065Z,42.38
2023-02-14T10:36:02.071Z,42.06
2023-02-14T10:37:02.044Z,42.70
2023-02-14T10:38:02.146Z,41.73
2023-02-14T10:39:02.025Z,42.38
2023-02-14T10:40:02.032Z,41.41
2023-02-14T10:41:02.171Z,41.89
2023-02-14T10:42:01.995Z,43.02
2023-02-14T10:43:01.991Z,41.89
2023-02-14T10:44:01.970Z,42.70
2023-02-14T10:45:01.959Z,41.89
2023-02-14T10:46:02.034Z,41.41
2023-02-14T10:47:01.939Z,43.83
2023-02-14T10:48:01.947Z,42.06
2023-02-14T10:49:01.914Z,42.86
2023-02-14T10:50:01.921Z,43.83
2023-02-14T10:51:02.322Z,45.92
2023-02-14T10:52:01.888Z,41.73
2023-02-14T10:53:01.921Z,42.38
2023-02-14T10:54:01.864Z,43.02
2023-02-14T10:55:01.861Z,42.38
2023-02-14T10:56:01.854Z,41.89
2023-02-14T10:57:01.829Z,43.99
2023-02-14T10:58:01.834Z,41.89
2023-02-14T10:59:01.825Z,41.89
2023-02-14T11:00:01.820Z,42.38
2023-02-14T11:01:02.219Z,41.41
2023-02-14T11:02:01.787Z,42.06
2023-02-14T11:03:01.768Z,42.38
2023-02-14T11:04:01.885Z,42.38
2023-02-14T11:05:01.762Z,41.57
2023-02-14T11:06:01.742Z,43.99
2023-02-14T11:07:01.740Z,42.38
2023-02-14T11:08:01.734Z,41.25
2023-02-14T11:09:01.720Z,41.89
2023-02-14T11:10:01.714Z,43.02
2023-02-14T11:11:02.050Z,43.02
2023-02-14T11:12:01.689Z,43.18
2023-02-14T11:13:01.673Z,42.86
2023-02-14T11:14:01.676Z,42.38
2023-02-14T11:15:01.706Z,43.02
2023-02-14T11:16:02.021Z,42.22
2023-02-14T11:17:01.702Z,43.99
2023-02-14T11:18:01.620Z,42.70
2023-02-14T11:19:01.612Z,42.54
2023-02-14T11:20:01.621Z,43.02
2023-02-14T11:21:01.627Z,41.89
2023-02-14T11:22:01.593Z,41.57
2023-02-14T11:23:01.560Z,41.57
2023-02-14T11:24:01.566Z,41.09
2023-02-14T11:25:03.502Z,41.09
2023-02-14T11:26:01.664Z,41.41
2023-02-14T11:27:01.529Z,40.93
2023-02-14T11:28:01.509Z,41.09
2023-02-14T11:29:01.501Z,40.12
2023-02-14T11:30:01.537Z,39.96
2023-02-14T11:31:02.291Z,38.51
2023-02-14T11:32:01.508Z,38.99
2023-02-14T11:33:01.455Z,39.16
2023-02-14T11:34:03.692Z,39.16
2023-02-14T11:35:01.450Z,37.22
2023-02-14T11:36:01.848Z,41.73
2023-02-14T11:37:01.420Z,38.67
2023-02-14T11:38:01.403Z,39.64
2023-02-14T11:39:01.386Z,37.06
2023-02-14T11:40:01.464Z,37.06
2023-02-14T11:41:01.664Z,38.03
2023-02-14T11:42:01.370Z,37.87
2023-02-14T11:43:13.918Z,39.48
2023-02-14T11:44:01.346Z,36.74
2023-02-14T11:45:01.337Z,37.06
2023-02-14T11:46:01.690Z,37.38
2023-02-14T11:47:01.306Z,36.58
2023-02-14T11:48:01.311Z,36.90
2023-02-14T11:49:01.288Z,37.22
2023-02-14T11:50:01.364Z,38.03
2023-02-14T11:51:01.790Z,36.90
2023-02-14T11:52:01.266Z,36.09
2023-02-14T11:53:01.252Z,36.58
2023-02-14T11:54:01.288Z,38.67
2023-02-14T11:55:01.232Z,37.38
2023-02-14T11:56:01.594Z,37.71
2023-02-14T11:57:01.216Z,38.67
2023-02-14T11:58:01.202Z,39.32
2023-02-14T11:59:01.181Z,39.32
2023-02-14T12:00:01.193Z,39.32
2023-02-14T12:01:01.727Z,38.19
2023-02-14T12:02:01.163Z,38.67
2023-02-14T12:03:01.154Z,38.83
2023-02-14T12:04:01.237Z,40.12
2023-02-14T12:05:01.151Z,38.03
2023-02-14T12:06:01.133Z,39.64
2023-02-14T12:07:01.109Z,38.83
2023-02-14T12:08:01.102Z,39.80
2023-02-14T12:09:01.093Z,38.51
2023-02-14T12:10:01.084Z,38.51
2023-02-14T12:11:01.279Z,41.89
2023-02-14T12:12:01.085Z,41.09
2023-02-14T12:13:01.038Z,39.48
2023-02-14T12:14:01.037Z,39.32
2023-02-14T12:15:01.017Z,41.09
2023-02-14T12:16:01.094Z,40.44
2023-02-14T12:17:00.994Z,40.28
2023-02-14T12:18:01.001Z,40.77
2023-02-14T12:19:00.973Z,40.28
2023-02-14T12:20:00.999Z,41.41
2023-02-14T12:21:01.455Z,40.44
2023-02-14T12:22:00.966Z,42.06
2023-02-14T12:23:00.940Z,41.25
2023-02-14T12:24:00.920Z,40.44
2023-02-14T12:25:00.930Z,41.41
2023-02-14T12:26:00.906Z,41.89
2023-02-14T12:27:01.356Z,40.77
2023-02-14T12:28:00.875Z,40.93
2023-02-14T12:29:00.873Z,40.93
2023-02-14T12:30:00.913Z,40.77
2023-02-14T12:31:01.254Z,40.77
2023-02-14T12:32:00.898Z,41.41
2023-02-14T12:33:00.830Z,40.93
2023-02-14T12:34:00.809Z,40.61
2023-02-14T12:35:00.817Z,40.93
2023-02-14T12:36:00.796Z,41.25
2023-02-14T12:37:00.829Z,40.61
2023-02-14T12:38:04.722Z,40.93
2023-02-14T12:39:00.765Z,41.09
2023-02-14T12:40:00.754Z,41.41
2023-02-14T12:41:01.222Z,42.70
2023-02-14T12:42:00.734Z,43.51
2023-02-14T12:43:00.730Z,41.73
2023-02-14T12:44:00.708Z,41.57
2023-02-14T12:45:00.707Z,41.89
2023-02-14T12:46:00.993Z,41.73
2023-02-14T12:47:00.686Z,42.22
2023-02-14T12:48:00.673Z,43.34
2023-02-14T12:49:00.673Z,42.86
2023-02-14T12:50:00.664Z,43.18
2023-02-14T12:51:01.196Z,42.06
2023-02-14T12:52:00.629Z,42.22